createdAt,value
2018-10-06T00:01:40.068Z,15.00
2018-10-06T00:04:08.283Z,14.73
2018-10-06T00:06:36.664Z,13.10
2018-10-06T00:09:05.808Z,23.23
2018-10-06T00:11:34.188Z,17.47
2018-10-06T00:14:02.416Z,23.83
2018-10-06T00:16:30.739Z,14.60
2018-10-06T00:18:59.937Z,20.70
2018-10-06T00:21:28.214Z,18.13
2018-10-06T00:23:56.407Z,18.67
2018-10-06T00:26:24.688Z,19.17
2018-10-06T00:28:53.015Z,23.20
2018-10-06T00:31:21.300Z,15.97
2018-10-06T00:33:49.495Z,15.47
2018-10-06T00:36:17.890Z,27.30
2018-10-06T00:38:46.141Z,20.30
2018-10-06T00:41:14.488Z,17.03
2018-10-06T00:43:42.833Z,16.57
2018-10-06T00:46:11.452Z,13.43
2018-10-06T00:48:39.753Z,17.23
2018-10-06T00:51:08.109Z,12.00
2018-10-06T00:53:36.442Z,12.00
2018-10-06T00:56:04.712Z,13.10
2018-10-06T00:58:33.143Z,11.40
2018-10-06T01:01:01.425Z,22.30
2018-10-06T01:03:29.755Z,20.73
2018-10-06T01:05:58.098Z,23.20
2018-10-06T01:08:26.327Z,14.30
2018-10-06T01:10:54.613Z,11.87
2018-10-06T01:13:22.883Z,11.27
2018-10-06T01:15:51.102Z,10.40
2018-10-06T01:18:19.375Z,16.23
2018-10-06T01:20:47.615Z,15.80
2018-10-06T01:23:15.892Z,21.67
2018-10-06T01:25:44.193Z,14.53
2018-10-06T01:28:12.577Z,23.70
2018-10-06T01:30:40.811Z,19.07
2018-10-06T01:33:09.160Z,24.27
2018-10-06T01:35:37.555Z,19.90
2018-10-06T01:38:06.079Z,32.07
2018-10-06T01:40:34.418Z,13.00
2018-10-06T01:43:02.849Z,12.67
2018-10-06T01:45:31.054Z,13.87
2018-10-06T01:47:59.326Z,43.30
2018-10-06T01:50:27.680Z,26.63
2018-10-06T01:52:56.005Z,21.77
2018-10-06T01:55:24.305Z,13.60
2018-10-06T01:57:52.615Z,11.00
2018-10-06T02:00:20.894Z,14.60
2018-10-06T02:02:49.209Z,14.37
2018-10-06T02:05:17.512Z,18.33
2018-10-06T02:07:45.807Z,13.30
2018-10-06T02:10:14.117Z,13.50
2018-10-06T02:12:42.386Z,14.37
2018-10-06T02:15:11.699Z,11.30
2018-10-06T02:17:39.965Z,13.20
2018-10-06T02:20:08.296Z,12.87
2018-10-06T02:22:36.689Z,14.77
2018-10-06T02:25:05.886Z,10.67
2018-10-06T02:27:34.166Z,10.97
2018-10-06T02:30:02.530Z,11.80
2018-10-06T02:32:30.881Z,13.83
2018-10-06T02:34:59.173Z,13.13
2018-10-06T02:37:27.957Z,11.20
2018-10-06T02:39:57.370Z,10.87
2018-10-06T02:42:25.660Z,10.70
2018-10-06T02:44:53.875Z,10.57
2018-10-06T02:47:22.111Z,11.63
2018-10-06T02:49:50.604Z,10.63
2018-10-06T02:52:18.877Z,11.03
2018-10-06T02:54:47.119Z,10.13
2018-10-06T02:57:15.349Z,10.40
2018-10-06T02:59:43.579Z,9.47
2018-10-06T03:02:11.775Z,9.77
2018-10-06T03:04:40.074Z,12.90
2018-10-06T03:07:08.277Z,10.03
2018-10-06T03:09:36.542Z,10.07
2018-10-06T03:12:04.875Z,9.47
2018-10-06T03:14:33.173Z,11.73
2018-10-06T03:17:01.469Z,10.63
2018-10-06T03:19:29.824Z,10.87
2018-10-06T03:21:58.123Z,10.93
2018-10-06T03:24:26.414Z,11.30
2018-10-06T03:26:54.705Z,11.70
2018-10-06T03:29:23.015Z,12.60
2018-10-06T03:31:51.283Z,16.03
2018-10-06T03:34:19.620Z,14.20
2018-10-06T03:36:47.919Z,13.07
2018-10-06T03:39:16.341Z,10.70
2018-10-06T03:41:44.692Z,11.53
2018-10-06T03:44:13.020Z,11.43
2018-10-06T03:46:41.290Z,10.30
2018-10-06T03:49:10.220Z,10.20
2018-10-06T03:51:38.588Z,10.40
2018-10-06T03:54:08.269Z,9.77
2018-10-06T03:56:36.483Z,9.70
2018-10-06T03:59:04.716Z,9.50
2018-10-06T04:01:32.954Z,9.60
2018-10-06T04:04:01.193Z,8.90
2018-10-06T04:06:29.486Z,9.77
2018-10-06T04:08:58.429Z,8.87
2018-10-06T04:11:26.677Z,7.90
2018-10-06T04:13:54.952Z,8.47
2018-10-06T04:16:23.231Z,9.53
2018-10-06T04:18:51.628Z,11.10
2018-10-06T04:21:19.981Z,13.23
2018-10-06T04:23:49.187Z,20.40
2018-10-06T04:26:17.723Z,34.70
2018-10-06T04:28:46.023Z,11.40
2018-10-06T04:31:17.606Z,9.60
2018-10-06T04:33:46.095Z,9.07
2018-10-06T04:36:14.291Z,14.93
2018-10-06T04:38:42.711Z,14.13
2018-10-06T04:41:10.904Z,12.73
2018-10-06T04:43:39.209Z,12.03
2018-10-06T04:46:07.528Z,9.70
2018-10-06T04:48:35.906Z,9.03
2018-10-06T04:51:04.272Z,9.30
2018-10-06T04:53:32.690Z,7.67
2018-10-06T04:56:01.053Z,8.47
2018-10-06T04:58:29.285Z,7.70
2018-10-06T05:00:57.646Z,6.97
2018-10-06T05:03:25.901Z,6.43
2018-10-06T05:05:54.410Z,7.23
2018-10-06T05:08:22.683Z,7.30
2018-10-06T05:10:51.002Z,7.40
2018-10-06T05:13:19.234Z,7.33
2018-10-06T05:15:47.529Z,7.73
2018-10-06T05:18:15.840Z,8.03
2018-10-06T05:20:44.098Z,8.80
2018-10-06T05:23:12.307Z,10.63
2018-10-06T05:25:40.581Z,9.57
2018-10-06T05:28:09.930Z,11.10
2018-10-06T05:30:38.403Z,11.07
2018-10-06T05:33:06.782Z,19.53
2018-10-06T05:35:34.997Z,10.23
2018-10-06T05:38:03.307Z,19.43
2018-10-06T05:40:31.675Z,15.37
2018-10-06T05:42:59.883Z,23.80
2018-10-06T05:45:28.134Z,14.63
2018-10-06T05:47:56.435Z,21.67
2018-10-06T05:50:24.721Z,10.90
2018-10-06T05:52:52.995Z,14.53
2018-10-06T05:55:21.255Z,19.17
2018-10-06T05:57:49.687Z,13.57
2018-10-06T06:00:17.955Z,14.43
2018-10-06T06:02:46.249Z,20.40
2018-10-06T06:05:18.335Z,17.30
2018-10-06T06:07:47.133Z,16.23
2018-10-06T06:10:15.328Z,24.33
2018-10-06T06:12:43.529Z,12.87
2018-10-06T06:15:11.763Z,20.33
2018-10-06T06:17:40.453Z,14.53
2018-10-06T06:20:09.927Z,11.73
2018-10-06T06:22:45.297Z,10.37
2018-10-06T06:25:14.145Z,8.80
2018-10-06T06:27:42.462Z,8.07
2018-10-06T06:30:11.014Z,13.67
2018-10-06T06:32:39.267Z,18.10
2018-10-06T06:35:07.528Z,18.33
2018-10-06T06:37:35.791Z,12.90
2018-10-06T06:40:04.087Z,13.40
2018-10-06T06:42:32.514Z,11.13
2018-10-06T06:45:00.743Z,7.97
2018-10-06T06:47:29.053Z,9.30
2018-10-06T06:49:57.375Z,7.40
2018-10-06T06:52:25.697Z,8.60
2018-10-06T06:54:53.988Z,7.23
2018-10-06T06:57:22.254Z,7.40
2018-10-06T06:59:50.500Z,7.80
2018-10-06T07:02:18.711Z,7.57
2018-10-06T07:04:46.956Z,7.70
2018-10-06T07:07:15.255Z,7.00
2018-10-06T07:09:43.494Z,7.73
2018-10-06T07:12:11.972Z,8.17
2018-10-06T07:14:40.215Z,7.70
2018-10-06T07:17:08.465Z,7.80
2018-10-06T07:19:36.831Z,7.60
2018-10-06T07:22:05.131Z,6.90
2018-10-06T07:24:33.509Z,6.80
2018-10-06T07:27:01.889Z,7.50
2018-10-06T07:29:30.273Z,7.07
2018-10-06T07:31:58.670Z,7.27
2018-10-06T07:34:27.186Z,7.93
2018-10-06T07:36:55.636Z,7.63
2018-10-06T07:39:23.857Z,7.67
2018-10-06T07:41:52.204Z,7.13
2018-10-06T07:44:20.557Z,7.87
2018-10-06T07:46:53.579Z,6.67
2018-10-06T07:49:22.017Z,6.83
2018-10-06T07:51:50.369Z,6.37
2018-10-06T07:54:18.590Z,7.37
2018-10-06T07:56:47.003Z,7.60
2018-10-06T07:59:15.449Z,6.73
2018-10-06T08:01:43.709Z,6.47
2018-10-06T08:04:12.022Z,7.23
2018-10-06T08:06:40.299Z,7.53
2018-10-06T08:09:09.215Z,7.53
2018-10-06T08:11:38.019Z,7.13
2018-10-06T08:14:06.254Z,7.03
2018-10-06T08:16:34.535Z,6.93
2018-10-06T08:19:03.036Z,7.73
2018-10-06T08:21:31.384Z,7.43
2018-10-06T08:23:59.844Z,6.37
2018-10-06T08:26:28.214Z,7.20
2018-10-06T08:28:56.629Z,7.00
2018-10-06T08:31:24.909Z,6.63
2018-10-06T08:33:53.269Z,7.60
2018-10-06T08:36:21.524Z,7.60
2018-10-06T08:38:49.821Z,6.63
2018-10-06T08:41:18.434Z,7.60
2018-10-06T08:43:46.872Z,7.60
2018-10-06T08:46:15.232Z,8.53
2018-10-06T08:48:43.594Z,8.77
2018-10-06T08:51:11.887Z,8.03
2018-10-06T08:53:40.222Z,7.80
2018-10-06T08:56:08.700Z,6.93
2018-10-06T08:58:36.881Z,7.40
2018-10-06T09:01:05.607Z,7.13
2018-10-06T09:03:33.934Z,7.33
2018-10-06T09:06:02.346Z,6.97
2018-10-06T09:08:30.680Z,8.00
2018-10-06T09:10:59.486Z,7.13
2018-10-06T09:13:27.802Z,7.57
2018-10-06T09:15:56.303Z,7.07
2018-10-06T09:18:26.673Z,6.50
2018-10-06T09:20:55.046Z,6.97
2018-10-06T09:23:29.393Z,7.13
2018-10-06T09:25:58.346Z,6.10
2018-10-06T09:28:26.893Z,6.93
2018-10-06T09:30:55.071Z,6.70
2018-10-06T09:33:24.087Z,7.10
2018-10-06T09:35:52.757Z,7.80
2018-10-06T09:38:21.177Z,6.73
2018-10-06T09:40:50.078Z,7.83
2018-10-06T09:43:18.787Z,7.83
2018-10-06T09:45:53.905Z,7.20
2018-10-06T09:48:27.160Z,7.33
2018-10-06T09:50:59.761Z,7.10
2018-10-06T09:53:28.220Z,9.43
2018-10-06T09:56:00.142Z,9.90
2018-10-06T09:58:28.813Z,8.00
2018-10-06T10:01:01.921Z,7.27
2018-10-06T10:03:34.593Z,7.80
2018-10-06T10:06:03.631Z,7.47
2018-10-06T10:08:32.400Z,6.87
2018-10-06T10:11:01.865Z,7.23
2018-10-06T10:13:31.080Z,7.40
2018-10-06T10:16:11.784Z,6.77
2018-10-06T10:18:40.660Z,7.57
2018-10-06T10:21:09.024Z,7.27
2018-10-06T10:23:37.523Z,7.13
2018-10-06T10:26:06.153Z,7.07
2018-10-06T10:28:34.661Z,7.10
2018-10-06T10:31:04.036Z,6.40
2018-10-06T10:33:41.381Z,6.77
2018-10-06T10:36:11.544Z,7.00
2018-10-06T10:38:43.533Z,6.87
2018-10-06T10:41:17.153Z,6.53
2018-10-06T10:43:49.502Z,6.87
2018-10-06T10:46:21.441Z,7.03
2018-10-06T10:48:50.790Z,6.67
2018-10-06T10:51:19.893Z,6.50
2018-10-06T10:53:50.357Z,7.30
2018-10-06T10:56:19.061Z,8.13
2018-10-06T10:58:47.750Z,6.80
2018-10-06T11:01:16.237Z,6.37
2018-10-06T11:03:44.916Z,7.40
2018-10-06T11:06:13.591Z,7.03
2018-10-06T11:08:42.011Z,7.13
2018-10-06T11:11:10.614Z,6.93
2018-10-06T11:13:39.533Z,6.60
2018-10-06T11:16:07.816Z,6.30
2018-10-06T11:18:36.161Z,6.83
2018-10-06T11:21:05.360Z,6.53
2018-10-06T11:23:33.933Z,6.57
2018-10-06T11:26:05.937Z,6.40
2018-10-06T11:28:34.380Z,6.37
2018-10-06T11:31:02.814Z,6.47
2018-10-06T11:33:31.341Z,6.70
2018-10-06T11:35:59.781Z,6.27
2018-10-06T11:38:28.116Z,6.40
2018-10-06T11:40:56.686Z,5.87
2018-10-06T11:43:25.112Z,6.37
2018-10-06T11:45:53.520Z,7.00
2018-10-06T11:48:25.113Z,7.53
2018-10-06T11:50:53.613Z,8.30
2018-10-06T11:53:22.213Z,8.13
2018-10-06T11:55:50.761Z,7.37
2018-10-06T11:58:19.760Z,6.93
2018-10-06T12:00:48.322Z,7.23
2018-10-06T12:03:16.680Z,7.03
2018-10-06T12:05:45.512Z,6.60
2018-10-06T12:08:15.145Z,7.43
2018-10-06T12:10:43.731Z,6.80
2018-10-06T12:13:16.761Z,6.20
2018-10-06T12:15:46.653Z,6.80
2018-10-06T12:18:15.013Z,7.03
2018-10-06T12:20:43.373Z,7.07
2018-10-06T12:23:11.913Z,8.50
2018-10-06T12:25:41.041Z,7.33
2018-10-06T12:28:09.630Z,6.93
2018-10-06T12:30:38.106Z,6.20
2018-10-06T12:33:06.497Z,8.00
2018-10-06T12:35:35.055Z,6.87
2018-10-06T12:38:03.561Z,7.20
2018-10-06T12:40:31.960Z,6.33
2018-10-06T12:43:00.433Z,6.27
2018-10-06T12:45:29.894Z,5.83
2018-10-06T12:47:58.610Z,7.33
2018-10-06T12:53:00.461Z,7.17
2018-10-06T12:55:28.781Z,7.43
2018-10-06T12:57:57.053Z,6.60
2018-10-06T13:00:25.741Z,7.13
2018-10-06T13:02:54.181Z,7.70
2018-10-06T13:05:22.781Z,8.50
2018-10-06T13:07:57.565Z,8.23
2018-10-06T13:10:26.271Z,8.20
2018-10-06T13:12:55.660Z,9.17
2018-10-06T13:15:24.873Z,7.70
2018-10-06T13:17:57.001Z,7.77
2018-10-06T13:20:25.520Z,21.10
2018-10-06T13:22:54.289Z,8.30
2018-10-06T13:25:22.701Z,22.13
2018-10-06T13:27:51.062Z,6.97
2018-10-06T13:30:19.411Z,10.40
2018-10-06T13:32:47.778Z,7.23
2018-10-06T13:35:16.194Z,8.73
2018-10-06T13:37:44.713Z,7.97
2018-10-06T13:40:13.161Z,12.53
2018-10-06T13:42:43.084Z,7.10
2018-10-06T13:45:13.472Z,7.53
2018-10-06T13:47:46.093Z,7.00
2018-10-06T13:50:15.072Z,7.27
2018-10-06T13:52:43.793Z,7.57
2018-10-06T13:55:12.601Z,7.87
2018-10-06T13:57:41.094Z,7.10
2018-10-06T14:00:09.665Z,6.47
2018-10-06T14:02:38.079Z,7.73
2018-10-06T14:05:06.829Z,7.40
2018-10-06T14:07:35.613Z,7.00
2018-10-06T14:10:04.461Z,7.67
2018-10-06T14:12:33.465Z,7.13
2018-10-06T14:15:03.080Z,6.90
2018-10-06T14:17:31.416Z,7.67
2018-10-06T14:19:59.812Z,7.27
2018-10-06T14:22:28.612Z,7.77
2018-10-06T14:24:57.060Z,9.37
2018-10-06T14:27:25.453Z,8.20
2018-10-06T14:29:54.133Z,8.20
2018-10-06T14:32:22.543Z,7.77
2018-10-06T14:34:50.910Z,10.53
2018-10-06T14:37:19.843Z,7.50
2018-10-06T14:39:48.521Z,7.90
2018-10-06T14:42:17.081Z,7.87
2018-10-06T14:44:45.562Z,8.50
2018-10-06T14:47:14.023Z,7.90
2018-10-06T14:49:42.481Z,8.03
2018-10-06T14:52:11.010Z,13.80
2018-10-06T14:54:39.472Z,9.63
2018-10-06T14:57:07.960Z,15.23
2018-10-06T14:59:36.429Z,13.43
2018-10-06T15:02:04.839Z,8.80
2018-10-06T15:04:33.332Z,8.23
2018-10-06T15:07:01.819Z,9.77
2018-10-06T15:09:30.114Z,7.77
2018-10-06T15:11:58.919Z,34.17
2018-10-06T15:14:27.440Z,12.63
2018-10-06T15:16:55.697Z,9.77
2018-10-06T15:19:23.971Z,8.97
2018-10-06T15:21:52.457Z,10.90
2018-10-06T15:24:20.784Z,16.40
2018-10-06T15:26:49.126Z,8.73
2018-10-06T15:29:17.472Z,9.00
2018-10-06T15:31:45.817Z,8.90
2018-10-06T15:34:14.029Z,9.10
2018-10-06T15:36:42.576Z,8.80
2018-10-06T15:39:10.746Z,9.60
2018-10-06T15:41:39.382Z,10.30
2018-10-06T15:44:07.887Z,9.27
2018-10-06T15:46:36.213Z,8.57
2018-10-06T15:49:04.557Z,9.47
2018-10-06T15:51:32.993Z,10.10
2018-10-06T15:54:01.257Z,12.10
2018-10-06T15:56:29.528Z,12.80
2018-10-06T15:58:57.806Z,11.77
2018-10-06T16:01:26.067Z,13.83
2018-10-06T16:03:54.367Z,14.90
2018-10-06T16:06:22.775Z,13.67
2018-10-06T16:08:54.352Z,13.57
2018-10-06T16:11:22.763Z,15.40
2018-10-06T16:13:51.146Z,11.73
2018-10-06T16:16:19.414Z,14.60
2018-10-06T16:18:47.674Z,12.40
2018-10-06T16:21:16.084Z,13.00
2018-10-06T16:23:44.451Z,14.77
2018-10-06T16:26:12.711Z,24.00
2018-10-06T16:28:42.206Z,17.63
2018-10-06T16:31:10.452Z,18.93
2018-10-06T16:33:38.784Z,19.03
2018-10-06T16:36:07.050Z,17.70
2018-10-06T16:38:35.326Z,16.17
2018-10-06T16:41:04.316Z,14.53
2018-10-06T16:43:37.104Z,13.97
2018-10-06T16:46:05.501Z,14.77
2018-10-06T16:48:33.877Z,13.73
2018-10-06T16:51:02.373Z,13.57
2018-10-06T16:53:31.337Z,12.53
2018-10-06T16:55:59.704Z,10.20
2018-10-06T16:58:28.054Z,12.63
2018-10-06T17:00:56.394Z,19.27
2018-10-06T17:03:24.654Z,19.73
2018-10-06T17:05:52.947Z,37.50
2018-10-06T17:08:21.168Z,56.93
2018-10-06T17:10:49.426Z,48.83
2018-10-06T17:13:17.851Z,37.43
2018-10-06T17:15:46.122Z,17.87
2018-10-06T17:18:14.433Z,14.80
2018-10-06T17:20:42.845Z,13.30
2018-10-06T17:23:11.174Z,16.27
2018-10-06T17:25:39.462Z,18.10
2018-10-06T17:28:07.817Z,15.43
2018-10-06T17:30:36.174Z,16.27
2018-10-06T17:33:04.507Z,14.53
2018-10-06T17:35:32.969Z,15.37
2018-10-06T17:38:01.254Z,16.00
2018-10-06T17:40:29.613Z,16.00
2018-10-06T17:42:57.991Z,15.77
2018-10-06T17:45:26.452Z,15.40
2018-10-06T17:47:54.762Z,15.23
2018-10-06T17:50:23.216Z,14.70
2018-10-06T17:52:51.509Z,15.20
2018-10-06T17:55:19.823Z,15.23
2018-10-06T17:57:48.250Z,12.47
2018-10-06T18:00:16.576Z,13.60
2018-10-06T18:02:44.973Z,11.90
2018-10-06T18:05:13.545Z,13.50
2018-10-06T18:07:41.829Z,14.60
2018-10-06T18:10:10.193Z,14.03
2018-10-06T18:12:38.620Z,15.10
2018-10-06T18:15:07.170Z,14.57
2018-10-06T18:17:35.900Z,15.43
2018-10-06T18:20:04.493Z,14.67
2018-10-06T18:22:33.413Z,16.27
2018-10-06T18:25:01.794Z,14.83
2018-10-06T18:27:30.237Z,14.40
2018-10-06T18:29:58.534Z,15.17
2018-10-06T18:32:26.832Z,14.67
2018-10-06T18:34:55.180Z,13.60
2018-10-06T18:37:23.809Z,13.20
2018-10-06T18:39:52.150Z,13.17
2018-10-06T18:42:20.543Z,13.10
2018-10-06T18:44:48.944Z,14.27
2018-10-06T18:47:17.328Z,13.90
2018-10-06T18:49:45.718Z,14.67
2018-10-06T18:52:14.092Z,15.47
2018-10-06T18:54:42.477Z,15.40
2018-10-06T18:57:11.007Z,15.90
2018-10-06T18:59:39.434Z,15.13
2018-10-06T19:02:07.779Z,14.97
2018-10-06T19:04:36.219Z,14.87
2018-10-06T19:07:04.530Z,16.97
2018-10-06T19:09:32.888Z,14.90
2018-10-06T19:12:05.517Z,15.50
2018-10-06T19:14:33.850Z,24.83
2018-10-06T19:17:02.201Z,32.77
2018-10-06T19:19:30.569Z,34.53
2018-10-06T19:21:59.001Z,48.57
2018-10-06T19:24:27.266Z,96.63
2018-10-06T19:26:55.650Z,106.50
2018-10-06T19:29:23.975Z,85.30
2018-10-06T19:31:53.493Z,64.60
2018-10-06T19:34:21.890Z,57.90
2018-10-06T19:36:50.234Z,54.97
2018-10-06T19:39:18.579Z,54.70
2018-10-06T19:41:47.051Z,52.47
2018-10-06T19:44:15.423Z,52.37
2018-10-06T19:46:48.298Z,39.17
2018-10-06T19:49:19.790Z,32.93
2018-10-06T19:51:48.158Z,31.00
2018-10-06T19:54:16.658Z,30.97
2018-10-06T19:56:45.020Z,25.10
2018-10-06T19:59:13.335Z,24.80
2018-10-06T20:01:41.745Z,22.60
2018-10-06T20:04:10.166Z,22.87
2018-10-06T20:06:38.594Z,22.27
2018-10-06T20:09:07.849Z,19.43
2018-10-06T20:11:36.563Z,18.23
2018-10-06T20:14:05.009Z,19.23
2018-10-06T20:16:33.420Z,17.60
2018-10-06T20:19:01.898Z,21.03
2018-10-06T20:21:30.283Z,28.17
2018-10-06T20:23:58.619Z,25.10
2018-10-06T20:26:26.947Z,35.63
2018-10-06T20:28:55.334Z,31.80
2018-10-06T20:31:23.709Z,25.40
2018-10-06T20:33:52.177Z,29.77
2018-10-06T20:36:20.619Z,43.80
2018-10-06T20:38:48.886Z,97.37
2018-10-06T20:41:17.176Z,79.80
2018-10-06T20:43:45.475Z,31.73
2018-10-06T20:46:13.840Z,54.67
2018-10-06T20:48:42.071Z,43.77
2018-10-06T20:51:10.414Z,49.30
2018-10-06T20:53:38.676Z,51.87
2018-10-06T20:56:07.116Z,30.57
2018-10-06T20:58:36.513Z,24.97
2018-10-06T21:01:05.295Z,17.27
2018-10-06T21:03:33.658Z,16.80
2018-10-06T21:06:01.925Z,17.87
2018-10-06T21:08:30.333Z,18.43
2018-10-06T21:10:58.589Z,16.53
2018-10-06T21:13:26.832Z,16.10
2018-10-06T21:15:55.136Z,15.83
2018-10-06T21:18:23.390Z,16.17
2018-10-06T21:20:51.594Z,16.07
2018-10-06T21:23:19.863Z,15.43
2018-10-06T21:25:48.044Z,15.57
2018-10-06T21:28:16.322Z,15.70
2018-10-06T21:30:44.665Z,15.07
2018-10-06T21:33:13.819Z,16.50
2018-10-06T21:35:42.114Z,17.17
2018-10-06T21:38:13.413Z,16.17
2018-10-06T21:40:41.590Z,15.87
2018-10-06T21:43:09.776Z,15.90
2018-10-06T21:45:38.064Z,19.67
2018-10-06T21:48:06.319Z,18.13
2018-10-06T21:50:34.791Z,19.43
2018-10-06T21:53:03.427Z,18.63
2018-10-06T21:55:31.638Z,18.80
2018-10-06T21:57:59.870Z,19.87
2018-10-06T22:00:28.120Z,17.57
2018-10-06T22:02:56.334Z,19.27
2018-10-06T22:05:24.701Z,19.50
2018-10-06T22:07:53.055Z,17.63
2018-10-06T22:10:21.300Z,17.57
2018-10-06T22:12:49.502Z,25.87
2018-10-06T22:15:17.859Z,26.87
2018-10-06T22:17:46.020Z,65.47
2018-10-06T22:20:14.256Z,127.40
2018-10-06T22:22:42.509Z,92.00
2018-10-06T22:25:10.746Z,62.27
2018-10-06T22:27:38.977Z,60.13
2018-10-06T22:30:07.441Z,35.70
2018-10-06T22:32:35.728Z,49.37
2018-10-06T22:35:03.919Z,49.80
2018-10-06T22:37:32.504Z,39.67
2018-10-06T22:40:00.680Z,27.63
2018-10-06T22:42:28.905Z,21.37
2018-10-06T22:44:57.186Z,26.93
2018-10-06T22:47:25.410Z,48.37
2018-10-06T22:49:53.632Z,67.47
2018-10-06T22:52:21.914Z,94.70
2018-10-06T22:54:50.130Z,66.00
2018-10-06T22:57:18.356Z,38.47
2018-10-06T22:59:46.731Z,25.37
2018-10-06T23:02:14.947Z,37.80
2018-10-06T23:04:43.161Z,33.23
2018-10-06T23:07:11.426Z,22.20
2018-10-06T23:09:39.649Z,28.60
2018-10-06T23:12:07.867Z,26.10
2018-10-06T23:14:36.109Z,46.87
2018-10-06T23:17:04.351Z,96.83
2018-10-06T23:19:32.543Z,114.50
2018-10-06T23:22:00.827Z,167.77
2018-10-06T23:24:29.011Z,152.30
2018-10-06T23:26:57.324Z,275.77
2018-10-06T23:29:25.639Z,197.30
2018-10-06T23:31:53.855Z,260.93
2018-10-06T23:34:22.090Z,226.80
2018-10-06T23:36:50.541Z,213.73
2018-10-06T23:39:18.885Z,198.87
2018-10-06T23:41:47.113Z,151.17
2018-10-06T23:44:15.433Z,138.20
2018-10-06T23:46:43.753Z,80.07
2018-10-06T23:49:12.093Z,51.30
2018-10-06T23:51:40.447Z,19.03
2018-10-06T23:54:08.903Z,19.73
2018-10-06T23:56:37.205Z,40.50
2018-10-06T23:59:05.570Z,20.50
